Teruhou Maru No.22 — JD3202 — position and weather

sailwx.info

Track history (hours):
 
Tides and Currents Weather Stations Pressure Air Temp Water Temp Dewpoint Dewpoint Depression Visibility Wind Speed Wind Dir Waves Ship Positions

Teruhou Maru No.22

Last reported at 2017-Jan-17 01:09 UTC. Time now 2017-Jan-17 07:02 UTC.
Position N 34°38' E 134°51'.

Length 76 m; draft 5 m.

Type: Cargo ship. MMSI: 431002552.

Date/timePositionNaut miles runAvg speedWind from/ knotsBaromVisibWave heightAir tempDewpointWater temp
2017-Jan-17 01:09N 34°38' E 134°51'913.7
2017-Jan-17 00:32N 34°37' E 135°02'  
2017-Jan-13 02:24N 34°08' E 134°56'1410.6
2017-Jan-13 01:05N 34°22' E 134°60'610.8
2017-Jan-13 00:33N 34°28' E 135°02'9 8.8
2017-Jan-12 23:33N 34°36' E 135°02'11 7.9
2017-Jan-12 22:09N 34°40' E 134°49'5 0.3
2017-Jan-12 03:22N 34°38' E 134°54'910.7
2017-Jan-12 02:34N 34°36' E 135°05'1212.4
2017-Jan-12 01:33N 34°37' E 135°20'7 5.5
2017-Jan-12 00:20N 34°40' E 135°27'0 0.0
2017-Jan-11 23:31N 34°40' E 135°27'3 3.3
2017-Jan-11 22:33N 34°38' E 135°24'4 0.3
2017-Jan-11 07:12N 34°35' E 135°27'1 0.2
2017-Jan-11 04:15N 34°35' E 135°26'6 8.5
2017-Jan-11 03:33N 34°33' E 135°20'1312.3
2017-Jan-11 02:32N 34°24' E 135°08'11 9.8
2017-Jan-11 01:24N 34°15' E 135°01'239 8.8
2017-Jan-09 22:13N 35°09' E 139°44'811.8
2017-Jan-09 21:33N 35°17' E 139°45'8 8.3
2017-Jan-09 20:33N 35°25' E 139°48'5 4.7
2017-Jan-09 19:33N 35°21' E 139°51'0 0.0
2017-Jan-09 17:16N 35°21' E 139°51'0 0.1
2017-Jan-09 16:17N 35°21' E 139°51'0 0.0
2017-Jan-09 15:32N 35°21' E 139°51'1 0.4
2017-Jan-09 13:32N 35°22' E 139°51'1 1.1
2017-Jan-09 12:28N 35°22' E 139°49'0 0.0
2017-Jan-09 11:31N 35°22' E 139°49'0 0.0
2017-Jan-09 10:31N 35°22' E 139°49'0 0.0
2017-Jan-09 09:32N 35°22' E 139°49'0 0.0
2017-Jan-09 08:28N 35°22' E 139°49'0 0.0
2017-Jan-09 07:28N 35°22' E 139°49'0 0.0
2017-Jan-09 06:29N 35°22' E 139°49'0 0.0
2017-Jan-09 05:32N 35°22' E 139°49'0 0.0
2017-Jan-09 04:32N 35°22' E 139°49'0 0.0
2017-Jan-09 03:32N 35°22' E 139°49'0 0.0
2017-Jan-09 02:33N 35°22' E 139°49'0 0.0
2017-Jan-09 01:33N 35°22' E 139°49'0 0.0
2017-Jan-09 00:33N 35°22' E 139°49'0 0.0
2017-Jan-08 23:33N 35°22' E 139°49'0 0.0
2017-Jan-08 22:33N 35°22' E 139°49'0 0.0
2017-Jan-08 21:33N 35°22' E 139°49'0 0.0
2017-Jan-08 20:33N 35°22' E 139°49'0 0.0
2017-Jan-08 19:33N 35°22' E 139°49'0 0.0
2017-Jan-08 18:33N 35°22' E 139°49'0 0.0
2017-Jan-08 17:33N 35°22' E 139°49'0 0.0
2017-Jan-08 16:33N 35°22' E 139°49'0 0.0
2017-Jan-08 15:33N 35°22' E 139°49'0 0.0
2017-Jan-08 14:33N 35°22' E 139°49'0 0.0
2017-Jan-08 13:33N 35°22' E 139°49'0 0.0
2017-Jan-08 12:33N 35°22' E 139°49'0 0.0
2017-Jan-08 11:33N 35°22' E 139°49'0 0.0
2017-Jan-08 10:25N 35°22' E 139°49'0 0.0
2017-Jan-08 09:31N 35°22' E 139°49'0 0.0
2017-Jan-08 08:28N 35°22' E 139°49'0 0.0
2017-Jan-08 07:31N 35°22' E 139°49'0 0.0
2017-Jan-08 06:31N 35°22' E 139°49'0 0.0
2017-Jan-08 05:31N 35°22' E 139°49'0 0.0
2017-Jan-08 04:31N 35°22' E 139°49'0 0.0
2017-Jan-08 03:31N 35°22' E 139°49'0 0.0
2017-Jan-08 02:31N 35°22' E 139°49'0 0.0
2017-Jan-08 01:31N 35°22' E 139°49'0 0.0
2017-Jan-08 00:31N 35°22' E 139°49'0 0.0
2017-Jan-07 23:31N 35°22' E 139°49'0 0.0
2017-Jan-07 22:31N 35°22' E 139°49'0 0.0
2017-Jan-07 21:31N 35°22' E 139°49'0 0.0
2017-Jan-07 20:31N 35°22' E 139°49'0 0.0
2017-Jan-07 19:31N 35°22' E 139°49'0 0.0
2017-Jan-07 18:31N 35°22' E 139°49'0 0.1
2017-Jan-07 17:31N 35°22' E 139°49'4 3.9
2017-Jan-07 16:33N 35°22' E 139°54'0 0.0
2017-Jan-07 11:03N 35°22' E 139°54'0 0.1
2017-Jan-07 10:33N 35°22' E 139°54'3 0.9
2017-Jan-07 07:16N 35°24' E 139°51'0 0.0
2017-Jan-07 02:13N 35°24' E 139°51'0 0.0
2017-Jan-07 01:31N 35°24' E 139°51'  
Track history (hours):
 
Tides and Currents Weather Stations Pressure Air Temp Water Temp Dewpoint Dewpoint Depression Visibility Wind Speed Wind Dir Waves Ship Positions

Teruhou Maru No.22

Last reported at 2017-Jan-17 01:09 UTC. Time now 2017-Jan-17 07:02 UTC.
Position N 34°38' E 134°51'.

Length 76 m; draft 5 m.

Type: Cargo ship. MMSI: 431002552.

Date/timePositionNaut miles runAvg speedWind from/ knotsBaromVisibWave heightAir tempDewpointWater temp
2017-Jan-17 01:09N 34°38' E 134°51'913.7
2017-Jan-17 00:32N 34°37' E 135°02'  
2017-Jan-13 02:24N 34°08' E 134°56'1410.6
2017-Jan-13 01:05N 34°22' E 134°60'610.8
2017-Jan-13 00:33N 34°28' E 135°02'9 8.8
2017-Jan-12 23:33N 34°36' E 135°02'11 7.9
2017-Jan-12 22:09N 34°40' E 134°49'5 0.3
2017-Jan-12 03:22N 34°38' E 134°54'910.7
2017-Jan-12 02:34N 34°36' E 135°05'1212.4
2017-Jan-12 01:33N 34°37' E 135°20'7 5.5
2017-Jan-12 00:20N 34°40' E 135°27'0 0.0
2017-Jan-11 23:31N 34°40' E 135°27'3 3.3
2017-Jan-11 22:33N 34°38' E 135°24'4 0.3
2017-Jan-11 07:12N 34°35' E 135°27'1 0.2
2017-Jan-11 04:15N 34°35' E 135°26'6 8.5
2017-Jan-11 03:33N 34°33' E 135°20'1312.3
2017-Jan-11 02:32N 34°24' E 135°08'11 9.8
2017-Jan-11 01:24N 34°15' E 135°01'239 8.8
2017-Jan-09 22:13N 35°09' E 139°44'811.8
2017-Jan-09 21:33N 35°17' E 139°45'8 8.3
2017-Jan-09 20:33N 35°25' E 139°48'5 4.7
2017-Jan-09 19:33N 35°21' E 139°51'0 0.0
2017-Jan-09 17:16N 35°21' E 139°51'0 0.1
2017-Jan-09 16:17N 35°21' E 139°51'0 0.0
2017-Jan-09 15:32N 35°21' E 139°51'1 0.4
2017-Jan-09 13:32N 35°22' E 139°51'1 1.1
2017-Jan-09 12:28N 35°22' E 139°49'0 0.0
2017-Jan-09 11:31N 35°22' E 139°49'0 0.0
2017-Jan-09 10:31N 35°22' E 139°49'0 0.0
2017-Jan-09 09:32N 35°22' E 139°49'0 0.0
2017-Jan-09 08:28N 35°22' E 139°49'0 0.0
2017-Jan-09 07:28N 35°22' E 139°49'0 0.0
2017-Jan-09 06:29N 35°22' E 139°49'0 0.0
2017-Jan-09 05:32N 35°22' E 139°49'0 0.0
2017-Jan-09 04:32N 35°22' E 139°49'0 0.0
2017-Jan-09 03:32N 35°22' E 139°49'0 0.0
2017-Jan-09 02:33N 35°22' E 139°49'0 0.0
2017-Jan-09 01:33N 35°22' E 139°49'0 0.0
2017-Jan-09 00:33N 35°22' E 139°49'0 0.0
2017-Jan-08 23:33N 35°22' E 139°49'0 0.0
2017-Jan-08 22:33N 35°22' E 139°49'0 0.0
2017-Jan-08 21:33N 35°22' E 139°49'0 0.0
2017-Jan-08 20:33N 35°22' E 139°49'0 0.0
2017-Jan-08 19:33N 35°22' E 139°49'0 0.0
2017-Jan-08 18:33N 35°22' E 139°49'0 0.0
2017-Jan-08 17:33N 35°22' E 139°49'0 0.0
2017-Jan-08 16:33N 35°22' E 139°49'0 0.0
2017-Jan-08 15:33N 35°22' E 139°49'0 0.0
2017-Jan-08 14:33N 35°22' E 139°49'0 0.0
2017-Jan-08 13:33N 35°22' E 139°49'0 0.0
2017-Jan-08 12:33N 35°22' E 139°49'0 0.0
2017-Jan-08 11:33N 35°22' E 139°49'0 0.0
2017-Jan-08 10:25N 35°22' E 139°49'0 0.0
2017-Jan-08 09:31N 35°22' E 139°49'0 0.0
2017-Jan-08 08:28N 35°22' E 139°49'0 0.0
2017-Jan-08 07:31N 35°22' E 139°49'0 0.0
2017-Jan-08 06:31N 35°22' E 139°49'0 0.0
2017-Jan-08 05:31N 35°22' E 139°49'0 0.0
2017-Jan-08 04:31N 35°22' E 139°49'0 0.0
2017-Jan-08 03:31N 35°22' E 139°49'0 0.0
2017-Jan-08 02:31N 35°22' E 139°49'0 0.0
2017-Jan-08 01:31N 35°22' E 139°49'0 0.0
2017-Jan-08 00:31N 35°22' E 139°49'0 0.0
2017-Jan-07 23:31N 35°22' E 139°49'0 0.0
2017-Jan-07 22:31N 35°22' E 139°49'0 0.0
2017-Jan-07 21:31N 35°22' E 139°49'0 0.0
2017-Jan-07 20:31N 35°22' E 139°49'0 0.0
2017-Jan-07 19:31N 35°22' E 139°49'0 0.0
2017-Jan-07 18:31N 35°22' E 139°49'0 0.1
2017-Jan-07 17:31N 35°22' E 139°49'4 3.9
2017-Jan-07 16:33N 35°22' E 139°54'0 0.0
2017-Jan-07 11:03N 35°22' E 139°54'0 0.1
2017-Jan-07 10:33N 35°22' E 139°54'3 0.9
2017-Jan-07 07:16N 35°24' E 139°51'0 0.0
2017-Jan-07 02:13N 35°24' E 139°51'0 0.0
2017-Jan-07 01:31N 35°24' E 139°51'  

Dump ship's entire track history